NKS2051 MKJP-KFLL
Flight info
| Callsign | NKS2051 |
|---|---|
| Flight time | 1h 36m |
| Altitude | 36000 |
| Route | OTUNU UL417 BORDO OLAHS3 |
| Aircraft | A320/M-SDE3FGHIRWY/LB1 |
Departure
| Time | 2026-05-05 21:52 |
|---|---|
| Airport | Norman Manley International Airport (MKJP) |
Arrival
| Time | 2026-05-05 23:29 |
|---|---|
| Airport | Fort Lauderdale Hollywood International Airport (KFLL) |
| Time | Latitude | Longitude | Altitude | Speed | Heading |
|---|---|---|---|---|---|
| 2026-05-05 21:29 | 17.93666 | -76.78033 | 14 ft | 0 kts | 112° |
| 2026-05-05 21:42 | 17.93670 | -76.78044 | 15 ft | 3 kts | 112° |
| 2026-05-05 21:43 | 17.93678 | -76.78063 | 15 ft | 3 kts | 112° |
| 2026-05-05 21:43 | 17.93686 | -76.78082 | 16 ft | 3 kts | 126° |
| 2026-05-05 21:43 | 17.93695 | -76.78092 | 18 ft | 3 kts | 189° |
| 2026-05-05 21:43 | 17.93705 | -76.78089 | 15 ft | 2 kts | 202° |
| 2026-05-05 21:44 | 17.93720 | -76.78083 | 15 ft | 1 kts | 202° |
| 2026-05-05 21:44 | 17.93721 | -76.78082 | 15 ft | 1 kts | 202° |
| 2026-05-05 21:46 | 17.93710 | -76.78087 | 14 ft | 3 kts | 202° |
| 2026-05-05 21:46 | 17.93669 | -76.78105 | 15 ft | 10 kts | 201° |
| 2026-05-05 21:46 | 17.93611 | -76.78128 | 14 ft | 0 kts | 205° |
| 2026-05-05 21:47 | 17.93584 | -76.78141 | 14 ft | 6 kts | 204° |
| 2026-05-05 21:48 | 17.93532 | -76.78161 | 14 ft | 9 kts | 205° |
| 2026-05-05 21:48 | 17.93524 | -76.78227 | 14 ft | 11 kts | 291° |
| 2026-05-05 21:48 | 17.93556 | -76.78310 | 14 ft | 14 kts | 292° |
| 2026-05-05 21:48 | 17.93596 | -76.78413 | 14 ft | 17 kts | 292° |
| 2026-05-05 21:49 | 17.93644 | -76.78533 | 14 ft | 19 kts | 292° |
| 2026-05-05 21:49 | 17.93696 | -76.78669 | 14 ft | 21 kts | 292° |
| 2026-05-05 21:49 | 17.93754 | -76.78822 | 15 ft | 24 kts | 292° |
| 2026-05-05 21:49 | 17.93818 | -76.78989 | 14 ft | 26 kts | 291° |
| 2026-05-05 21:50 | 17.93889 | -76.79174 | 14 ft | 28 kts | 292° |
| 2026-05-05 21:50 | 17.93961 | -76.79361 | 14 ft | 27 kts | 292° |
| 2026-05-05 21:50 | 17.94020 | -76.79511 | 13 ft | 17 kts | 291° |
| 2026-05-05 21:50 | 17.94067 | -76.79635 | 15 ft | 19 kts | 291° |
| 2026-05-05 21:51 | 17.94098 | -76.79780 | 13 ft | 22 kts | 278° |
| 2026-05-05 21:51 | 17.94088 | -76.79893 | 14 ft | 14 kts | 231° |
| 2026-05-05 21:51 | 17.94015 | -76.79908 | 12 ft | 10 kts | 146° |
| 2026-05-05 21:51 | 17.93970 | -76.79803 | 14 ft | 39 kts | 112° |
| 2026-05-05 21:52 | 17.93349 | -76.78178 | 220 ft | 174 kts | 111° |
| 2026-05-05 21:52 | 17.92878 | -76.76945 | 979 ft | 189 kts | 109° |
| 2026-05-05 21:52 | 17.92346 | -76.75655 | 1860 ft | 190 kts | 113° |
| 2026-05-05 21:53 | 17.91445 | -76.74562 | 2374 ft | 214 kts | 146° |
| 2026-05-05 21:53 | 17.89943 | -76.74217 | 2939 ft | 240 kts | 180° |
| 2026-05-05 21:53 | 17.88307 | -76.74842 | 3600 ft | 264 kts | 210° |
| 2026-05-05 21:53 | 17.86997 | -76.76289 | 4296 ft | 285 kts | 239° |
| 2026-05-05 21:54 | 17.86535 | -76.78344 | 5056 ft | 298 kts | 273° |
| 2026-05-05 21:54 | 17.87152 | -76.80406 | 5929 ft | 299 kts | 306° |
| 2026-05-05 21:54 | 17.88665 | -76.81838 | 6804 ft | 291 kts | 337° |
| 2026-05-05 21:54 | 17.90565 | -76.82454 | 7584 ft | 292 kts | 348° |
| 2026-05-05 21:55 | 17.92553 | -76.82953 | 8398 ft | 296 kts | 348° |
| 2026-05-05 21:55 | 17.94560 | -76.83461 | 9157 ft | 301 kts | 348° |
| 2026-05-05 21:55 | 17.96615 | -76.83978 | 9919 ft | 305 kts | 347° |
| 2026-05-05 21:55 | 17.98725 | -76.84510 | 10313 ft | 323 kts | 347° |
| 2026-05-05 21:56 | 18.00979 | -76.85081 | 10498 ft | 344 kts | 346° |
| 2026-05-05 21:56 | 18.03342 | -76.85681 | 11030 ft | 352 kts | 346° |
| 2026-05-05 21:56 | 18.05703 | -76.86281 | 11685 ft | 356 kts | 345° |
| 2026-05-05 21:56 | 18.08102 | -76.86886 | 12338 ft | 359 kts | 345° |
| 2026-05-05 21:57 | 18.10531 | -76.87499 | 13028 ft | 360 kts | 345° |
| 2026-05-05 21:57 | 18.12981 | -76.88115 | 13680 ft | 363 kts | 345° |
| 2026-05-05 21:57 | 18.15452 | -76.88737 | 14243 ft | 366 kts | 346° |
| 2026-05-05 21:57 | 18.17938 | -76.89367 | 14838 ft | 368 kts | 346° |
| 2026-05-05 21:58 | 18.20442 | -76.90004 | 15427 ft | 370 kts | 345° |
| 2026-05-05 21:58 | 18.22925 | -76.90635 | 16016 ft | 372 kts | 345° |
| 2026-05-05 21:58 | 18.25448 | -76.91274 | 16600 ft | 374 kts | 346° |
| 2026-05-05 21:58 | 18.27993 | -76.91917 | 17198 ft | 376 kts | 346° |
| 2026-05-05 21:59 | 18.30544 | -76.92559 | 17762 ft | 379 kts | 346° |
| 2026-05-05 21:59 | 18.33123 | -76.93208 | 18326 ft | 381 kts | 345° |
| 2026-05-05 21:59 | 18.35705 | -76.93860 | 18857 ft | 382 kts | 345° |
| 2026-05-05 21:59 | 18.38298 | -76.94516 | 19371 ft | 384 kts | 345° |
| 2026-05-05 22:00 | 18.40900 | -76.95176 | 19935 ft | 384 kts | 345° |
| 2026-05-05 22:00 | 18.43476 | -76.95831 | 20433 ft | 387 kts | 345° |
| 2026-05-05 22:00 | 18.46103 | -76.96499 | 20939 ft | 388 kts | 345° |
| 2026-05-05 22:00 | 18.48734 | -76.97168 | 21457 ft | 390 kts | 345° |
| 2026-05-05 22:01 | 18.51391 | -76.97845 | 21915 ft | 392 kts | 345° |
| 2026-05-05 22:01 | 18.54050 | -76.98524 | 22430 ft | 394 kts | 346° |
| 2026-05-05 22:01 | 18.56691 | -76.99196 | 22871 ft | 397 kts | 345° |
| 2026-05-05 22:01 | 18.59381 | -76.99879 | 23349 ft | 399 kts | 345° |
| 2026-05-05 22:02 | 18.62095 | -77.00568 | 23778 ft | 401 kts | 345° |
| 2026-05-05 22:02 | 18.64818 | -77.01261 | 24157 ft | 403 kts | 346° |
| 2026-05-05 22:02 | 18.67558 | -77.01957 | 24575 ft | 404 kts | 345° |
| 2026-05-05 22:02 | 18.70293 | -77.02651 | 25014 ft | 405 kts | 345° |
| 2026-05-05 22:03 | 18.73035 | -77.03347 | 25434 ft | 406 kts | 345° |
| 2026-05-05 22:03 | 18.75786 | -77.04047 | 25828 ft | 407 kts | 345° |
| 2026-05-05 22:03 | 18.78520 | -77.04745 | 26209 ft | 409 kts | 345° |
| 2026-05-05 22:03 | 18.81296 | -77.05455 | 26594 ft | 411 kts | 346° |
| 2026-05-05 22:04 | 18.84084 | -77.06168 | 26970 ft | 412 kts | 346° |
| 2026-05-05 22:04 | 18.86879 | -77.06880 | 27344 ft | 414 kts | 346° |
| 2026-05-05 22:04 | 18.89694 | -77.07594 | 27716 ft | 416 kts | 346° |
| 2026-05-05 22:04 | 18.92516 | -77.08310 | 28090 ft | 417 kts | 346° |
| 2026-05-05 22:05 | 18.95346 | -77.09029 | 28484 ft | 419 kts | 346° |
| 2026-05-05 22:05 | 18.98186 | -77.09753 | 28869 ft | 420 kts | 346° |
| 2026-05-05 22:05 | 19.01006 | -77.10472 | 29266 ft | 422 kts | 346° |
| 2026-05-05 22:05 | 19.03868 | -77.11204 | 29644 ft | 424 kts | 346° |
| 2026-05-05 22:06 | 19.06750 | -77.11942 | 30025 ft | 426 kts | 346° |
| 2026-05-05 22:06 | 19.09646 | -77.12685 | 30340 ft | 428 kts | 346° |
| 2026-05-05 22:06 | 19.12544 | -77.13429 | 30657 ft | 430 kts | 346° |
| 2026-05-05 22:06 | 19.15466 | -77.14177 | 30986 ft | 432 kts | 346° |
| 2026-05-05 22:07 | 19.18396 | -77.14927 | 31309 ft | 433 kts | 346° |
| 2026-05-05 22:07 | 19.21332 | -77.15678 | 31652 ft | 435 kts | 346° |
| 2026-05-05 22:07 | 19.24230 | -77.16418 | 32116 ft | 433 kts | 346° |
| 2026-05-05 22:07 | 19.27190 | -77.17175 | 32624 ft | 431 kts | 346° |
| 2026-05-05 22:08 | 19.30061 | -77.17910 | 33105 ft | 429 kts | 346° |
| 2026-05-05 22:08 | 19.32963 | -77.18651 | 33607 ft | 427 kts | 346° |
| 2026-05-05 22:08 | 19.35842 | -77.19386 | 34115 ft | 425 kts | 346° |
| 2026-05-05 22:08 | 19.38712 | -77.20123 | 34573 ft | 423 kts | 345° |
| 2026-05-05 22:09 | 19.41570 | -77.20860 | 34984 ft | 421 kts | 345° |
| 2026-05-05 22:09 | 19.44398 | -77.21589 | 35364 ft | 421 kts | 345° |
| 2026-05-05 22:09 | 19.47244 | -77.22321 | 35725 ft | 420 kts | 345° |
| 2026-05-05 22:09 | 19.50059 | -77.23047 | 35944 ft | 423 kts | 345° |
| 2026-05-05 22:10 | 19.52931 | -77.23787 | 36001 ft | 426 kts | 345° |
| 2026-05-05 22:10 | 19.58710 | -77.25273 | 36003 ft | 428 kts | 345° |
| 2026-05-05 22:11 | 19.64499 | -77.26758 | 36007 ft | 428 kts | 345° |
| 2026-05-05 22:11 | 19.70299 | -77.28248 | 36008 ft | 428 kts | 345° |
| 2026-05-05 22:12 | 19.76082 | -77.29737 | 36011 ft | 428 kts | 345° |
| 2026-05-05 22:12 | 19.81835 | -77.31222 | 36016 ft | 428 kts | 345° |
| 2026-05-05 22:13 | 19.87627 | -77.32721 | 36017 ft | 428 kts | 345° |
| 2026-05-05 22:13 | 19.93415 | -77.34215 | 36020 ft | 428 kts | 345° |
| 2026-05-05 22:14 | 19.99212 | -77.35718 | 36015 ft | 428 kts | 345° |
| 2026-05-05 22:14 | 20.04952 | -77.37195 | 36024 ft | 428 kts | 345° |
| 2026-05-05 22:15 | 20.10743 | -77.38688 | 36028 ft | 428 kts | 344° |
| 2026-05-05 22:15 | 20.16531 | -77.40195 | 36021 ft | 427 kts | 345° |
| 2026-05-05 22:16 | 20.22312 | -77.41695 | 36015 ft | 427 kts | 345° |
| 2026-05-05 22:16 | 20.28059 | -77.43187 | 36019 ft | 427 kts | 345° |
| 2026-05-05 22:17 | 20.33830 | -77.44685 | 36017 ft | 427 kts | 345° |
| 2026-05-05 22:17 | 20.39609 | -77.46187 | 36024 ft | 427 kts | 345° |
| 2026-05-05 22:18 | 20.45382 | -77.47692 | 36020 ft | 427 kts | 345° |
| 2026-05-05 22:18 | 20.51124 | -77.49190 | 36018 ft | 427 kts | 345° |
| 2026-05-05 22:19 | 20.56895 | -77.50691 | 36023 ft | 427 kts | 345° |
| 2026-05-05 22:19 | 20.62666 | -77.52190 | 36022 ft | 427 kts | 345° |
| 2026-05-05 22:20 | 20.68448 | -77.53698 | 36034 ft | 427 kts | 345° |
| 2026-05-05 22:20 | 20.74182 | -77.55199 | 36035 ft | 426 kts | 345° |
| 2026-05-05 22:21 | 20.79950 | -77.56703 | 36037 ft | 426 kts | 345° |
| 2026-05-05 22:21 | 20.85722 | -77.58207 | 36036 ft | 426 kts | 345° |
| 2026-05-05 22:22 | 20.91477 | -77.59712 | 36034 ft | 426 kts | 345° |
| 2026-05-05 22:22 | 20.97193 | -77.61210 | 36042 ft | 426 kts | 345° |
| 2026-05-05 22:23 | 21.02955 | -77.62723 | 36040 ft | 425 kts | 345° |
| 2026-05-05 22:23 | 21.08684 | -77.64227 | 36044 ft | 425 kts | 345° |
| 2026-05-05 22:24 | 21.14433 | -77.65737 | 36043 ft | 425 kts | 345° |
| 2026-05-05 22:24 | 21.19216 | -77.66995 | 36042 ft | 425 kts | 345° |
| 2026-05-05 22:25 | 21.25900 | -77.68752 | 36039 ft | 424 kts | 345° |
| 2026-05-05 22:25 | 21.30673 | -77.70008 | 36038 ft | 424 kts | 345° |
| 2026-05-05 22:26 | 21.36412 | -77.71525 | 36046 ft | 424 kts | 344° |
| 2026-05-05 22:26 | 21.42153 | -77.73031 | 36045 ft | 424 kts | 345° |
| 2026-05-05 22:27 | 21.47885 | -77.74542 | 36042 ft | 424 kts | 344° |
| 2026-05-05 22:27 | 21.53614 | -77.76056 | 36046 ft | 424 kts | 345° |
| 2026-05-05 22:28 | 21.59307 | -77.77551 | 36044 ft | 424 kts | 344° |
| 2026-05-05 22:28 | 21.65043 | -77.79068 | 36041 ft | 424 kts | 344° |
| 2026-05-05 22:29 | 21.70775 | -77.80586 | 36055 ft | 423 kts | 343° |
| 2026-05-05 22:29 | 21.76489 | -77.82103 | 36059 ft | 422 kts | 343° |
| 2026-05-05 22:30 | 21.82148 | -77.83603 | 36059 ft | 421 kts | 343° |
| 2026-05-05 22:30 | 21.87832 | -77.85113 | 36054 ft | 420 kts | 343° |
| 2026-05-05 22:31 | 21.93511 | -77.86626 | 36053 ft | 419 kts | 343° |
| 2026-05-05 22:31 | 21.99150 | -77.88124 | 36051 ft | 419 kts | 343° |
| 2026-05-05 22:32 | 22.04817 | -77.89635 | 36057 ft | 419 kts | 343° |
| 2026-05-05 22:32 | 22.10472 | -77.91138 | 36054 ft | 418 kts | 343° |
| 2026-05-05 22:33 | 22.16132 | -77.92642 | 36052 ft | 418 kts | 343° |
| 2026-05-05 22:33 | 22.21753 | -77.94134 | 36052 ft | 418 kts | 343° |
| 2026-05-05 22:34 | 22.27391 | -77.95639 | 36046 ft | 417 kts | 343° |
| 2026-05-05 22:34 | 22.33036 | -77.97147 | 36039 ft | 418 kts | 343° |
| 2026-05-05 22:35 | 22.38679 | -77.98661 | 36060 ft | 417 kts | 343° |
| 2026-05-05 22:35 | 22.44275 | -78.00161 | 36053 ft | 416 kts | 343° |
| 2026-05-05 22:36 | 22.49900 | -78.01664 | 36049 ft | 415 kts | 343° |
| 2026-05-05 22:36 | 22.55515 | -78.03166 | 36045 ft | 415 kts | 343° |
| 2026-05-05 22:37 | 22.61098 | -78.04658 | 36038 ft | 415 kts | 343° |
| 2026-05-05 22:37 | 22.66708 | -78.06166 | 36062 ft | 415 kts | 343° |
| 2026-05-05 22:38 | 22.72305 | -78.07673 | 36061 ft | 414 kts | 343° |
| 2026-05-05 22:38 | 22.77892 | -78.09175 | 36049 ft | 413 kts | 343° |
| 2026-05-05 22:39 | 22.83447 | -78.10741 | 36050 ft | 411 kts | 342° |
| 2026-05-05 22:39 | 22.88930 | -78.12406 | 36040 ft | 411 kts | 342° |
| 2026-05-05 22:40 | 22.94440 | -78.14083 | 36046 ft | 411 kts | 342° |
| 2026-05-05 22:40 | 22.99960 | -78.15741 | 36058 ft | 411 kts | 342° |
| 2026-05-05 22:41 | 23.05452 | -78.17378 | 36056 ft | 411 kts | 342° |
| 2026-05-05 22:41 | 23.10973 | -78.19031 | 36036 ft | 411 kts | 342° |
| 2026-05-05 22:42 | 23.16485 | -78.20683 | 36034 ft | 411 kts | 342° |
| 2026-05-05 22:42 | 23.21994 | -78.22333 | 36052 ft | 411 kts | 342° |
| 2026-05-05 22:43 | 23.27473 | -78.23975 | 36034 ft | 410 kts | 342° |
| 2026-05-05 22:43 | 23.32982 | -78.25634 | 36051 ft | 410 kts | 341° |
| 2026-05-05 22:44 | 23.38491 | -78.27293 | 36046 ft | 410 kts | 341° |
| 2026-05-05 22:44 | 23.43984 | -78.28946 | 36040 ft | 409 kts | 341° |
| 2026-05-05 22:45 | 23.49439 | -78.30595 | 36033 ft | 409 kts | 341° |
| 2026-05-05 22:45 | 23.54926 | -78.32243 | 36030 ft | 409 kts | 341° |
| 2026-05-05 22:46 | 23.60422 | -78.33892 | 36030 ft | 409 kts | 341° |
| 2026-05-05 22:46 | 23.65907 | -78.35553 | 36046 ft | 408 kts | 341° |
| 2026-05-05 22:47 | 23.71295 | -78.37185 | 36044 ft | 408 kts | 341° |
| 2026-05-05 22:47 | 23.76762 | -78.38840 | 36040 ft | 407 kts | 341° |
| 2026-05-05 22:48 | 23.82232 | -78.40496 | 36037 ft | 407 kts | 341° |
| 2026-05-05 22:48 | 23.87698 | -78.42157 | 36035 ft | 407 kts | 341° |
| 2026-05-05 22:49 | 23.93169 | -78.43809 | 36032 ft | 407 kts | 341° |
| 2026-05-05 22:49 | 23.98611 | -78.45438 | 36044 ft | 408 kts | 343° |
| 2026-05-05 22:50 | 24.04335 | -78.45873 | 36042 ft | 416 kts | 355° |
| 2026-05-05 22:50 | 24.10126 | -78.45823 | 36037 ft | 416 kts | 355° |
| 2026-05-05 22:51 | 24.15884 | -78.45781 | 36035 ft | 416 kts | 355° |
| 2026-05-05 22:51 | 24.21677 | -78.45748 | 36035 ft | 416 kts | 355° |
| 2026-05-05 22:52 | 24.27400 | -78.45715 | 36029 ft | 401 kts | 355° |
| 2026-05-05 22:52 | 24.33012 | -78.45682 | 36030 ft | 410 kts | 355° |
| 2026-05-05 22:53 | 24.38764 | -78.45657 | 36021 ft | 414 kts | 355° |
| 2026-05-05 22:53 | 24.44504 | -78.45628 | 36021 ft | 415 kts | 355° |
| 2026-05-05 22:54 | 24.50316 | -78.45606 | 35736 ft | 419 kts | 355° |
| 2026-05-05 22:54 | 24.53235 | -78.45600 | 35491 ft | 420 kts | 355° |
| 2026-05-05 22:54 | 24.56165 | -78.45599 | 35260 ft | 422 kts | 355° |
| 2026-05-05 22:54 | 24.59109 | -78.45599 | 35036 ft | 423 kts | 354° |
| 2026-05-05 22:55 | 24.62057 | -78.45595 | 34808 ft | 424 kts | 355° |
| 2026-05-05 22:55 | 24.65020 | -78.45588 | 34572 ft | 425 kts | 355° |
| 2026-05-05 22:55 | 24.67981 | -78.45576 | 34340 ft | 426 kts | 355° |
| 2026-05-05 22:55 | 24.70954 | -78.45564 | 34114 ft | 428 kts | 355° |
| 2026-05-05 22:56 | 24.73901 | -78.45556 | 33867 ft | 429 kts | 355° |
| 2026-05-05 22:56 | 24.76900 | -78.45553 | 33606 ft | 430 kts | 355° |
| 2026-05-05 22:56 | 24.79912 | -78.45553 | 33347 ft | 432 kts | 355° |
| 2026-05-05 22:56 | 24.82927 | -78.45549 | 33090 ft | 432 kts | 355° |
| 2026-05-05 22:57 | 24.85923 | -78.45538 | 32835 ft | 429 kts | 355° |
| 2026-05-05 22:57 | 24.88872 | -78.45527 | 32598 ft | 428 kts | 354° |
| 2026-05-05 22:57 | 24.91842 | -78.45531 | 32352 ft | 426 kts | 354° |
| 2026-05-05 22:57 | 24.94806 | -78.45546 | 32102 ft | 425 kts | 354° |
| 2026-05-05 22:58 | 24.97765 | -78.45567 | 31861 ft | 424 kts | 354° |
| 2026-05-05 22:58 | 25.00713 | -78.45589 | 31617 ft | 423 kts | 354° |
| 2026-05-05 22:58 | 25.03664 | -78.45609 | 31383 ft | 422 kts | 354° |
| 2026-05-05 22:58 | 25.06605 | -78.45628 | 31138 ft | 421 kts | 354° |
| 2026-05-05 22:59 | 25.09496 | -78.45644 | 30906 ft | 421 kts | 354° |
| 2026-05-05 22:59 | 25.12426 | -78.45658 | 30671 ft | 420 kts | 354° |
| 2026-05-05 22:59 | 25.15342 | -78.45669 | 30440 ft | 419 kts | 354° |
| 2026-05-05 22:59 | 25.18259 | -78.45682 | 30210 ft | 418 kts | 354° |
| 2026-05-05 23:00 | 25.24076 | -78.45709 | 29715 ft | 416 kts | 354° |
| 2026-05-05 23:00 | 25.26967 | -78.45721 | 29442 ft | 414 kts | 354° |
| 2026-05-05 23:00 | 25.29810 | -78.45735 | 29174 ft | 413 kts | 354° |
| 2026-05-05 23:01 | 25.32677 | -78.45751 | 28926 ft | 412 kts | 354° |
| 2026-05-05 23:01 | 25.35528 | -78.45859 | 28667 ft | 406 kts | 347° |
| 2026-05-05 23:01 | 25.38209 | -78.46662 | 28407 ft | 396 kts | 333° |
| 2026-05-05 23:01 | 25.40551 | -78.48195 | 28152 ft | 389 kts | 319° |
| 2026-05-05 23:02 | 25.42423 | -78.50332 | 27901 ft | 385 kts | 305° |
| 2026-05-05 23:02 | 25.43722 | -78.52912 | 27649 ft | 385 kts | 294° |
| 2026-05-05 23:02 | 25.44763 | -78.55639 | 27393 ft | 384 kts | 294° |
| 2026-05-05 23:02 | 25.45799 | -78.58357 | 27156 ft | 383 kts | 294° |
| 2026-05-05 23:03 | 25.46838 | -78.61074 | 26910 ft | 382 kts | 294° |
| 2026-05-05 23:03 | 25.47874 | -78.63777 | 26661 ft | 381 kts | 294° |
| 2026-05-05 23:03 | 25.48911 | -78.66480 | 26431 ft | 380 kts | 293° |
| 2026-05-05 23:03 | 25.49927 | -78.69136 | 26193 ft | 378 kts | 293° |
| 2026-05-05 23:04 | 25.50938 | -78.71784 | 25950 ft | 369 kts | 293° |
| 2026-05-05 23:04 | 25.51936 | -78.74401 | 25737 ft | 370 kts | 293° |
| 2026-05-05 23:04 | 25.52946 | -78.77042 | 25510 ft | 373 kts | 293° |
| 2026-05-05 23:04 | 25.53959 | -78.79690 | 25280 ft | 373 kts | 293° |
| 2026-05-05 23:05 | 25.54972 | -78.82339 | 25052 ft | 373 kts | 293° |
| 2026-05-05 23:05 | 25.55970 | -78.84945 | 24833 ft | 372 kts | 293° |
| 2026-05-05 23:05 | 25.56984 | -78.87594 | 24559 ft | 371 kts | 293° |
| 2026-05-05 23:05 | 25.57987 | -78.90221 | 24294 ft | 370 kts | 293° |
| 2026-05-05 23:06 | 25.58987 | -78.92846 | 24022 ft | 369 kts | 292° |
| 2026-05-05 23:06 | 25.59982 | -78.95464 | 23767 ft | 368 kts | 292° |
| 2026-05-05 23:06 | 25.60973 | -78.98081 | 23489 ft | 367 kts | 292° |
| 2026-05-05 23:06 | 25.61961 | -79.00682 | 23172 ft | 366 kts | 292° |
| 2026-05-05 23:07 | 25.62937 | -79.03250 | 22864 ft | 365 kts | 292° |
| 2026-05-05 23:07 | 25.63917 | -79.05840 | 22556 ft | 363 kts | 292° |
| 2026-05-05 23:07 | 25.64889 | -79.08424 | 22259 ft | 362 kts | 292° |
| 2026-05-05 23:07 | 25.65857 | -79.11005 | 21948 ft | 361 kts | 292° |
| 2026-05-05 23:08 | 25.66818 | -79.13574 | 21656 ft | 360 kts | 292° |
| 2026-05-05 23:08 | 25.67777 | -79.16136 | 21365 ft | 359 kts | 292° |
| 2026-05-05 23:08 | 25.68737 | -79.18698 | 21059 ft | 358 kts | 292° |
| 2026-05-05 23:08 | 25.69687 | -79.21238 | 20779 ft | 357 kts | 292° |
| 2026-05-05 23:09 | 25.70624 | -79.23745 | 20496 ft | 356 kts | 292° |
| 2026-05-05 23:09 | 25.71571 | -79.26275 | 20217 ft | 355 kts | 292° |
| 2026-05-05 23:09 | 25.72520 | -79.28808 | 19925 ft | 354 kts | 293° |
| 2026-05-05 23:09 | 25.73462 | -79.31325 | 19654 ft | 353 kts | 292° |
| 2026-05-05 23:10 | 25.74394 | -79.33843 | 19384 ft | 352 kts | 292° |
| 2026-05-05 23:10 | 25.75318 | -79.36363 | 19103 ft | 351 kts | 292° |
| 2026-05-05 23:10 | 25.76235 | -79.38876 | 18836 ft | 350 kts | 292° |
| 2026-05-05 23:10 | 25.77136 | -79.41349 | 18577 ft | 349 kts | 292° |
| 2026-05-05 23:11 | 25.78046 | -79.43844 | 18303 ft | 349 kts | 292° |
| 2026-05-05 23:11 | 25.78958 | -79.46340 | 17989 ft | 348 kts | 292° |
| 2026-05-05 23:11 | 25.79865 | -79.48818 | 17686 ft | 346 kts | 292° |
| 2026-05-05 23:11 | 25.80771 | -79.51290 | 17383 ft | 345 kts | 292° |
| 2026-05-05 23:12 | 25.81664 | -79.53729 | 17074 ft | 343 kts | 292° |
| 2026-05-05 23:12 | 25.82560 | -79.56180 | 16782 ft | 342 kts | 292° |
| 2026-05-05 23:12 | 25.83450 | -79.58622 | 16485 ft | 341 kts | 292° |
| 2026-05-05 23:12 | 25.84337 | -79.61055 | 16193 ft | 339 kts | 292° |
| 2026-05-05 23:13 | 25.85239 | -79.63470 | 15895 ft | 338 kts | 292° |
| 2026-05-05 23:13 | 25.86168 | -79.65866 | 15613 ft | 337 kts | 294° |
| 2026-05-05 23:13 | 25.87156 | -79.68218 | 15328 ft | 336 kts | 295° |
| 2026-05-05 23:13 | 25.88176 | -79.70549 | 15042 ft | 334 kts | 296° |
| 2026-05-05 23:14 | 25.89205 | -79.72870 | 14773 ft | 333 kts | 296° |
| 2026-05-05 23:14 | 25.90222 | -79.75180 | 14504 ft | 333 kts | 296° |
| 2026-05-05 23:14 | 25.91213 | -79.77460 | 14233 ft | 332 kts | 295° |
| 2026-05-05 23:14 | 25.92206 | -79.79773 | 13954 ft | 331 kts | 295° |
| 2026-05-05 23:15 | 25.93192 | -79.82083 | 13665 ft | 330 kts | 295° |
| 2026-05-05 23:15 | 25.94169 | -79.84389 | 13361 ft | 329 kts | 295° |
| 2026-05-05 23:15 | 25.95142 | -79.86683 | 13049 ft | 327 kts | 295° |
| 2026-05-05 23:15 | 25.96110 | -79.88967 | 12754 ft | 326 kts | 295° |
| 2026-05-05 23:16 | 25.97075 | -79.91240 | 12461 ft | 325 kts | 295° |
| 2026-05-05 23:16 | 25.98028 | -79.93479 | 12165 ft | 324 kts | 295° |
| 2026-05-05 23:16 | 25.99136 | -79.95648 | 11868 ft | 323 kts | 307° |
| 2026-05-05 23:16 | 26.00617 | -79.97534 | 11583 ft | 322 kts | 310° |
| 2026-05-05 23:17 | 26.02112 | -79.99383 | 11296 ft | 320 kts | 310° |
| 2026-05-05 23:17 | 26.03603 | -80.01217 | 11002 ft | 319 kts | 310° |
| 2026-05-05 23:17 | 26.04588 | -80.02427 | 10818 ft | 318 kts | 310° |
| 2026-05-05 23:17 | 26.06070 | -80.04247 | 10537 ft | 317 kts | 310° |
| 2026-05-05 23:18 | 26.07549 | -80.06067 | 10266 ft | 316 kts | 310° |
| 2026-05-05 23:18 | 26.09014 | -80.07876 | 10011 ft | 312 kts | 310° |
| 2026-05-05 23:18 | 26.10463 | -80.09670 | 9747 ft | 311 kts | 310° |
| 2026-05-05 23:18 | 26.11890 | -80.11442 | 9451 ft | 306 kts | 310° |
| 2026-05-05 23:19 | 26.13301 | -80.13186 | 9173 ft | 301 kts | 310° |
| 2026-05-05 23:19 | 26.14456 | -80.15066 | 8908 ft | 297 kts | 294° |
| 2026-05-05 23:19 | 26.15005 | -80.17254 | 8651 ft | 291 kts | 275° |
| 2026-05-05 23:19 | 26.15046 | -80.19497 | 8408 ft | 289 kts | 270° |
| 2026-05-05 23:20 | 26.15051 | -80.21737 | 8161 ft | 288 kts | 270° |
| 2026-05-05 23:20 | 26.15058 | -80.23968 | 7916 ft | 288 kts | 270° |
| 2026-05-05 23:20 | 26.15069 | -80.26185 | 7674 ft | 284 kts | 271° |
| 2026-05-05 23:20 | 26.15092 | -80.28332 | 7435 ft | 278 kts | 271° |
| 2026-05-05 23:21 | 26.15108 | -80.30467 | 7193 ft | 272 kts | 270° |
| 2026-05-05 23:21 | 26.15106 | -80.32526 | 6952 ft | 267 kts | 270° |
| 2026-05-05 23:21 | 26.15087 | -80.34595 | 6657 ft | 266 kts | 270° |
| 2026-05-05 23:21 | 26.15067 | -80.36655 | 6300 ft | 266 kts | 269° |
| 2026-05-05 23:22 | 26.15049 | -80.38721 | 5910 ft | 267 kts | 270° |
| 2026-05-05 23:22 | 26.15033 | -80.40788 | 5490 ft | 269 kts | 270° |
| 2026-05-05 23:22 | 26.14853 | -80.42857 | 5075 ft | 270 kts | 253° |
| 2026-05-05 23:22 | 26.13895 | -80.44638 | 4665 ft | 267 kts | 224° |
| 2026-05-05 23:23 | 26.12323 | -80.45623 | 4526 ft | 260 kts | 197° |
| 2026-05-05 23:23 | 26.10548 | -80.45638 | 4445 ft | 255 kts | 168° |
| 2026-05-05 23:23 | 26.08999 | -80.44729 | 4369 ft | 256 kts | 139° |
| 2026-05-05 23:23 | 26.08012 | -80.43095 | 4292 ft | 257 kts | 108° |
| 2026-05-05 23:24 | 26.07778 | -80.41167 | 4135 ft | 249 kts | 90° |
| 2026-05-05 23:24 | 26.07786 | -80.39250 | 3850 ft | 248 kts | 89° |
| 2026-05-05 23:24 | 26.07792 | -80.37340 | 3549 ft | 246 kts | 89° |
| 2026-05-05 23:24 | 26.07786 | -80.35498 | 3236 ft | 238 kts | 89° |
| 2026-05-05 23:25 | 26.07778 | -80.33711 | 2938 ft | 226 kts | 88° |
| 2026-05-05 23:25 | 26.07769 | -80.32016 | 2653 ft | 209 kts | 88° |
| 2026-05-05 23:25 | 26.07762 | -80.30482 | 2397 ft | 187 kts | 88° |
| 2026-05-05 23:25 | 26.07756 | -80.29078 | 2184 ft | 176 kts | 89° |
| 2026-05-05 23:26 | 26.07750 | -80.27750 | 1943 ft | 165 kts | 88° |
| 2026-05-05 23:26 | 26.07744 | -80.26526 | 1752 ft | 151 kts | 88° |
| 2026-05-05 23:26 | 26.07738 | -80.25427 | 1556 ft | 136 kts | 88° |
| 2026-05-05 23:26 | 26.07734 | -80.24393 | 1358 ft | 132 kts | 86° |
| 2026-05-05 23:27 | 26.07737 | -80.23396 | 1193 ft | 130 kts | 88° |
| 2026-05-05 23:27 | 26.07741 | -80.22393 | 1001 ft | 128 kts | 86° |
| 2026-05-05 23:27 | 26.07726 | -80.21397 | 862 ft | 129 kts | 89° |
| 2026-05-05 23:27 | 26.07717 | -80.20389 | 729 ft | 132 kts | 88° |
| 2026-05-05 23:28 | 26.07720 | -80.19383 | 568 ft | 133 kts | 88° |
| 2026-05-05 23:28 | 26.07704 | -80.18383 | 371 ft | 130 kts | 90° |
| 2026-05-05 23:28 | 26.07700 | -80.17385 | 221 ft | 129 kts | 90° |
| 2026-05-05 23:28 | 26.07695 | -80.16397 | 53 ft | 127 kts | 88° |
| 2026-05-05 23:29 | 26.07689 | -80.15523 | 15 ft | 84 kts | 90° |
| 2026-05-05 23:29 | 26.07687 | -80.15145 | 15 ft | 36 kts | 90° |
| 2026-05-05 23:29 | 26.07683 | -80.14873 | 19 ft | 34 kts | 93° |
| 2026-05-05 23:29 | 26.07643 | -80.14630 | 20 ft | 23 kts | 110° |
| 2026-05-05 23:30 | 26.07582 | -80.14523 | 18 ft | 0 kts | 148° |
| 2026-05-05 23:30 | 26.07580 | -80.14521 | 17 ft | 2 kts | 154° |
| 2026-05-05 23:30 | 26.07561 | -80.14543 | 17 ft | 6 kts | 266° |
| 2026-05-05 23:31 | 26.07560 | -80.14612 | 17 ft | 11 kts | 270° |
| 2026-05-05 23:31 | 26.07561 | -80.14719 | 17 ft | 16 kts | 270° |
| 2026-05-05 23:31 | 26.07535 | -80.14843 | 16 ft | 18 kts | 226° |
| 2026-05-05 23:31 | 26.07435 | -80.14955 | 16 ft | 21 kts | 226° |
| 2026-05-05 23:32 | 26.07329 | -80.15074 | 16 ft | 21 kts | 226° |
| 2026-05-05 23:32 | 26.07219 | -80.15125 | 16 ft | 15 kts | 166° |
| 2026-05-05 23:32 | 26.07151 | -80.15060 | 16 ft | 14 kts | 134° |
| 2026-05-05 23:32 | 26.07068 | -80.14968 | 16 ft | 19 kts | 135° |
| 2026-05-05 23:33 | 26.06965 | -80.14855 | 16 ft | 17 kts | 135° |
| 2026-05-05 23:33 | 26.06949 | -80.14761 | 18 ft | 13 kts | 57° |
| 2026-05-05 23:33 | 26.06934 | -80.14673 | 16 ft | 12 kts | 93° |
| 2026-05-05 23:33 | 26.06934 | -80.14612 | 16 ft | 3 kts | 90° |
| 2026-05-05 23:34 | 26.06934 | -80.14602 | 16 ft | 0 kts | 90° |